<?xml version="1.0" encoding="UTF-8" standalone="no" ?>
<gpx xmlns="http://www.topografix.com/GPX/1/1" xmlns:xsi="http://www.w3.org/2001/XMLSchema-instance" xsi:schemaLocation="http://www.topografix.com/GPX/1/1 http://www.topografix.com/GPX/1/1/gpx.xsd" version="1.1" creator="VisuGPX - https://www.visugpx.com">
  <metadata>
    <name>StCrespinMoine_PierreEcuelleSerpillette_9-21km</name>
    <desc><![CDATA[gnerando idor:7269162_9400780_9395508]]></desc>
  </metadata>
  <trk>
    <name><![CDATA[StCrespin_PierreEcuelleSerpillette_19.5km-9400780]]></name>
    <extensions>
      <line xmlns="http://www.topografix.com/GPX/gpx_style/0/2">
        <color>00FF00</color>
        <width>4</width>
      </line>
    </extensions>
    <trkseg>
      <trkpt lat="47.09738" lon="-1.18635">
        <ele>57</ele>
        <time>2023-11-12T16:10:16Z</time>
      </trkpt>
      <trkpt lat="47.09756" lon="-1.18643">
        <ele>59</ele>
        <time>2023-11-12T16:10:41Z</time>
      </trkpt>
      <trkpt lat="47.09796" lon="-1.18641">
        <ele>63</ele>
        <time>2023-11-12T16:11:35Z</time>
      </trkpt>
      <trkpt lat="47.09816" lon="-1.18636">
        <ele>65</ele>
        <time>2023-11-12T16:12:02Z</time>
      </trkpt>
      <trkpt lat="47.09853" lon="-1.18638">
        <ele>69</ele>
        <time>2023-11-12T16:12:51Z</time>
      </trkpt>
      <trkpt lat="47.09872" lon="-1.18634">
        <ele>70</ele>
        <time>2023-11-12T16:13:17Z</time>
      </trkpt>
      <trkpt lat="47.09888" lon="-1.18651">
        <ele>71</ele>
        <time>2023-11-12T16:13:43Z</time>
      </trkpt>
      <trkpt lat="47.09899" lon="-1.18676">
        <ele>72</ele>
        <time>2023-11-12T16:14:10Z</time>
      </trkpt>
      <trkpt lat="47.09913" lon="-1.18694">
        <ele>73</ele>
        <time>2023-11-12T16:14:35Z</time>
      </trkpt>
      <trkpt lat="47.09924" lon="-1.18718">
        <ele>73</ele>
        <time>2023-11-12T16:15:01Z</time>
      </trkpt>
      <trkpt lat="47.0993" lon="-1.18804">
        <ele>72</ele>
        <time>2023-11-12T16:16:20Z</time>
      </trkpt>
      <trkpt lat="47.09949" lon="-1.18802">
        <ele>73</ele>
        <time>2023-11-12T16:16:45Z</time>
      </trkpt>
      <trkpt lat="47.09933" lon="-1.18816">
        <ele>72</ele>
        <time>2023-11-12T16:17:10Z</time>
      </trkpt>
      <trkpt lat="47.09933" lon="-1.18876">
        <ele>71</ele>
        <time>2023-11-12T16:18:04Z</time>
      </trkpt>
      <trkpt lat="47.09936" lon="-1.18905">
        <ele>71</ele>
        <time>2023-11-12T16:18:31Z</time>
      </trkpt>
      <trkpt lat="47.09957" lon="-1.19015">
        <ele>69</ele>
        <time>2023-11-12T16:20:15Z</time>
      </trkpt>
      <trkpt lat="47.0996" lon="-1.19041">
        <ele>69</ele>
        <time>2023-11-12T16:20:39Z</time>
      </trkpt>
      <trkpt lat="47.10008" lon="-1.19195">
        <ele>65</ele>
        <time>2023-11-12T16:23:13Z</time>
      </trkpt>
      <trkpt lat="47.10019" lon="-1.19248">
        <ele>62</ele>
        <time>2023-11-12T16:24:03Z</time>
      </trkpt>
      <trkpt lat="47.10072" lon="-1.19365">
        <ele>65</ele>
        <time>2023-11-12T16:26:11Z</time>
      </trkpt>
      <trkpt lat="47.10113" lon="-1.19426">
        <ele>68</ele>
        <time>2023-11-12T16:27:29Z</time>
      </trkpt>
      <trkpt lat="47.1012" lon="-1.19479">
        <ele>69</ele>
        <time>2023-11-12T16:28:18Z</time>
      </trkpt>
      <trkpt lat="47.1012" lon="-1.19508">
        <ele>69</ele>
        <time>2023-11-12T16:28:44Z</time>
      </trkpt>
      <trkpt lat="47.10108" lon="-1.19561">
        <ele>69</ele>
        <time>2023-11-12T16:29:35Z</time>
      </trkpt>
      <trkpt lat="47.10107" lon="-1.1959">
        <ele>68</ele>
        <time>2023-11-12T16:30:01Z</time>
      </trkpt>
      <trkpt lat="47.10108" lon="-1.19646">
        <ele>68</ele>
        <time>2023-11-12T16:30:52Z</time>
      </trkpt>
      <trkpt lat="47.10118" lon="-1.19758">
        <ele>67</ele>
        <time>2023-11-12T16:32:35Z</time>
      </trkpt>
      <trkpt lat="47.10119" lon="-1.19785">
        <ele>66</ele>
        <time>2023-11-12T16:32:59Z</time>
      </trkpt>
      <trkpt lat="47.10116" lon="-1.19813">
        <ele>66</ele>
        <time>2023-11-12T16:33:25Z</time>
      </trkpt>
      <trkpt lat="47.10103" lon="-1.19836">
        <ele>65</ele>
        <time>2023-11-12T16:33:52Z</time>
      </trkpt>
      <trkpt lat="47.10059" lon="-1.19891">
        <ele>64</ele>
        <time>2023-11-12T16:35:09Z</time>
      </trkpt>
      <trkpt lat="47.10054" lon="-1.19917">
        <ele>64</ele>
        <time>2023-11-12T16:35:34Z</time>
      </trkpt>
      <trkpt lat="47.10089" lon="-1.20046">
        <ele>64</ele>
        <time>2023-11-12T16:37:40Z</time>
      </trkpt>
      <trkpt lat="47.10094" lon="-1.20075">
        <ele>63</ele>
        <time>2023-11-12T16:38:07Z</time>
      </trkpt>
      <trkpt lat="47.10108" lon="-1.20125">
        <ele>64</ele>
        <time>2023-11-12T16:38:56Z</time>
      </trkpt>
      <trkpt lat="47.10133" lon="-1.20235">
        <ele>64</ele>
        <time>2023-11-12T16:40:41Z</time>
      </trkpt>
      <trkpt lat="47.10128" lon="-1.20262">
        <ele>63</ele>
        <time>2023-11-12T16:41:07Z</time>
      </trkpt>
      <trkpt lat="47.10114" lon="-1.20278">
        <ele>63</ele>
        <time>2023-11-12T16:41:30Z</time>
      </trkpt>
      <trkpt lat="47.10088" lon="-1.20318">
        <ele>62</ele>
        <time>2023-11-12T16:42:21Z</time>
      </trkpt>
      <trkpt lat="47.09977" lon="-1.20471">
        <ele>57</ele>
        <time>2023-11-12T16:45:44Z</time>
      </trkpt>
      <trkpt lat="47.09967" lon="-1.20494">
        <ele>56</ele>
        <time>2023-11-12T16:46:09Z</time>
      </trkpt>
      <trkpt lat="47.09961" lon="-1.20519">
        <ele>55</ele>
        <time>2023-11-12T16:46:33Z</time>
      </trkpt>
      <trkpt lat="47.0996" lon="-1.20547">
        <ele>54</ele>
        <time>2023-11-12T16:46:58Z</time>
      </trkpt>
      <trkpt lat="47.09955" lon="-1.20576">
        <ele>53</ele>
        <time>2023-11-12T16:47:25Z</time>
      </trkpt>
      <trkpt lat="47.09942" lon="-1.20633">
        <ele>50</ele>
        <time>2023-11-12T16:48:20Z</time>
      </trkpt>
      <trkpt lat="47.09933" lon="-1.20657">
        <ele>49</ele>
        <time>2023-11-12T16:48:45Z</time>
      </trkpt>
      <trkpt lat="47.09902" lon="-1.20729">
        <ele>45</ele>
        <time>2023-11-12T16:50:02Z</time>
      </trkpt>
      <trkpt lat="47.0989" lon="-1.20753">
        <ele>44</ele>
        <time>2023-11-12T16:50:29Z</time>
      </trkpt>
      <trkpt lat="47.09876" lon="-1.20774">
        <ele>42</ele>
        <time>2023-11-12T16:50:56Z</time>
      </trkpt>
      <trkpt lat="47.09842" lon="-1.20845">
        <ele>36</ele>
        <time>2023-11-12T16:52:15Z</time>
      </trkpt>
      <trkpt lat="47.09814" lon="-1.20884">
        <ele>32</ele>
        <time>2023-11-12T16:53:06Z</time>
      </trkpt>
      <trkpt lat="47.09807" lon="-1.20936">
        <ele>30</ele>
        <time>2023-11-12T16:53:55Z</time>
      </trkpt>
      <trkpt lat="47.09798" lon="-1.2108">
        <ele>30</ele>
        <time>2023-11-12T16:56:06Z</time>
      </trkpt>
      <trkpt lat="47.09807" lon="-1.21163">
        <ele>30</ele>
        <time>2023-11-12T16:57:22Z</time>
      </trkpt>
      <trkpt lat="47.09813" lon="-1.2119">
        <ele>30</ele>
        <time>2023-11-12T16:57:48Z</time>
      </trkpt>
      <trkpt lat="47.09823" lon="-1.21215">
        <ele>30</ele>
        <time>2023-11-12T16:58:14Z</time>
      </trkpt>
      <trkpt lat="47.09858" lon="-1.21284">
        <ele>30</ele>
        <time>2023-11-12T16:59:33Z</time>
      </trkpt>
      <trkpt lat="47.09867" lon="-1.21308">
        <ele>31</ele>
        <time>2023-11-12T16:59:57Z</time>
      </trkpt>
      <trkpt lat="47.09891" lon="-1.21387">
        <ele>32</ele>
        <time>2023-11-12T17:01:16Z</time>
      </trkpt>
      <trkpt lat="47.09895" lon="-1.21415">
        <ele>32</ele>
        <time>2023-11-12T17:01:42Z</time>
      </trkpt>
      <trkpt lat="47.09923" lon="-1.21518">
        <ele>29</ele>
        <time>2023-11-12T17:03:23Z</time>
      </trkpt>
      <trkpt lat="47.09925" lon="-1.21544">
        <ele>29</ele>
        <time>2023-11-12T17:03:47Z</time>
      </trkpt>
      <trkpt lat="47.09921" lon="-1.2157">
        <ele>29</ele>
        <time>2023-11-12T17:04:11Z</time>
      </trkpt>
      <trkpt lat="47.09908" lon="-1.21591">
        <ele>28</ele>
        <time>2023-11-12T17:04:37Z</time>
      </trkpt>
      <trkpt lat="47.09916" lon="-1.21615">
        <ele>28</ele>
        <time>2023-11-12T17:05:01Z</time>
      </trkpt>
      <trkpt lat="47.09941" lon="-1.21659">
        <ele>32</ele>
        <time>2023-11-12T17:05:53Z</time>
      </trkpt>
      <trkpt lat="47.09957" lon="-1.2174">
        <ele>34</ele>
        <time>2023-11-12T17:07:09Z</time>
      </trkpt>
      <trkpt lat="47.09959" lon="-1.21768">
        <ele>33</ele>
        <time>2023-11-12T17:07:35Z</time>
      </trkpt>
      <trkpt lat="47.09967" lon="-1.21796">
        <ele>33</ele>
        <time>2023-11-12T17:08:03Z</time>
      </trkpt>
      <trkpt lat="47.09972" lon="-1.21825">
        <ele>33</ele>
        <time>2023-11-12T17:08:30Z</time>
      </trkpt>
      <trkpt lat="47.09974" lon="-1.21884">
        <ele>31</ele>
        <time>2023-11-12T17:09:23Z</time>
      </trkpt>
      <trkpt lat="47.09981" lon="-1.21939">
        <ele>29</ele>
        <time>2023-11-12T17:10:14Z</time>
      </trkpt>
      <trkpt lat="47.09993" lon="-1.21992">
        <ele>29</ele>
        <time>2023-11-12T17:11:05Z</time>
      </trkpt>
      <trkpt lat="47.10003" lon="-1.22019">
        <ele>29</ele>
        <time>2023-11-12T17:11:33Z</time>
      </trkpt>
      <trkpt lat="47.10025" lon="-1.22061">
        <ele>30</ele>
        <time>2023-11-12T17:12:21Z</time>
      </trkpt>
      <trkpt lat="47.10019" lon="-1.22119">
        <ele>29</ele>
        <time>2023-11-12T17:13:14Z</time>
      </trkpt>
      <trkpt lat="47.10026" lon="-1.22198">
        <ele>29</ele>
        <time>2023-11-12T17:14:27Z</time>
      </trkpt>
      <trkpt lat="47.10037" lon="-1.22256">
        <ele>30</ele>
        <time>2023-11-12T17:15:21Z</time>
      </trkpt>
      <trkpt lat="47.10045" lon="-1.22281">
        <ele>30</ele>
        <time>2023-11-12T17:15:47Z</time>
      </trkpt>
      <trkpt lat="47.10061" lon="-1.22297">
        <ele>31</ele>
        <time>2023-11-12T17:16:12Z</time>
      </trkpt>
      <trkpt lat="47.10075" lon="-1.22318">
        <ele>32</ele>
        <time>2023-11-12T17:16:39Z</time>
      </trkpt>
      <trkpt lat="47.10082" lon="-1.22342">
        <ele>32</ele>
        <time>2023-11-12T17:17:03Z</time>
      </trkpt>
      <trkpt lat="47.1008" lon="-1.2237">
        <ele>30</ele>
        <time>2023-11-12T17:17:28Z</time>
      </trkpt>
      <trkpt lat="47.10074" lon="-1.22395">
        <ele>29</ele>
        <time>2023-11-12T17:17:52Z</time>
      </trkpt>
      <trkpt lat="47.10069" lon="-1.22451">
        <ele>28</ele>
        <time>2023-11-12T17:18:44Z</time>
      </trkpt>
      <trkpt lat="47.1009" lon="-1.2259">
        <ele>28</ele>
        <time>2023-11-12T17:20:53Z</time>
      </trkpt>
      <trkpt lat="47.10088" lon="-1.22617">
        <ele>28</ele>
        <time>2023-11-12T17:21:18Z</time>
      </trkpt>
      <trkpt lat="47.10089" lon="-1.22645">
        <ele>28</ele>
        <time>2023-11-12T17:21:43Z</time>
      </trkpt>
      <trkpt lat="47.10082" lon="-1.22727">
        <ele>29</ele>
        <time>2023-11-12T17:22:58Z</time>
      </trkpt>
      <trkpt lat="47.10084" lon="-1.22782">
        <ele>30</ele>
        <time>2023-11-12T17:23:48Z</time>
      </trkpt>
      <trkpt lat="47.10092" lon="-1.22865">
        <ele>31</ele>
        <time>2023-11-12T17:25:04Z</time>
      </trkpt>
      <trkpt lat="47.10098" lon="-1.22892">
        <ele>32</ele>
        <time>2023-11-12T17:25:30Z</time>
      </trkpt>
      <trkpt lat="47.10085" lon="-1.22947">
        <ele>30</ele>
        <time>2023-11-12T17:26:23Z</time>
      </trkpt>
      <trkpt lat="47.10084" lon="-1.22974">
        <ele>30</ele>
        <time>2023-11-12T17:26:48Z</time>
      </trkpt>
      <trkpt lat="47.10072" lon="-1.23057">
        <ele>30</ele>
        <time>2023-11-12T17:28:05Z</time>
      </trkpt>
      <trkpt lat="47.10073" lon="-1.23113">
        <ele>31</ele>
        <time>2023-11-12T17:28:56Z</time>
      </trkpt>
      <trkpt lat="47.10066" lon="-1.23224">
        <ele>34</ele>
        <time>2023-11-12T17:30:37Z</time>
      </trkpt>
      <trkpt lat="47.10062" lon="-1.23251">
        <ele>35</ele>
        <time>2023-11-12T17:31:02Z</time>
      </trkpt>
      <trkpt lat="47.10046" lon="-1.23304">
        <ele>37</ele>
        <time>2023-11-12T17:31:55Z</time>
      </trkpt>
      <trkpt lat="47.10044" lon="-1.23331">
        <ele>39</ele>
        <time>2023-11-12T17:32:19Z</time>
      </trkpt>
      <trkpt lat="47.10031" lon="-1.23383">
        <ele>45</ele>
        <time>2023-11-12T17:33:10Z</time>
      </trkpt>
      <trkpt lat="47.10016" lon="-1.23488">
        <ele>54</ele>
        <time>2023-11-12T17:34:47Z</time>
      </trkpt>
      <trkpt lat="47.10014" lon="-1.23517">
        <ele>55</ele>
        <time>2023-11-12T17:35:14Z</time>
      </trkpt>
      <trkpt lat="47.09997" lon="-1.23526">
        <ele>56</ele>
        <time>2023-11-12T17:35:38Z</time>
      </trkpt>
      <trkpt lat="47.09962" lon="-1.23511">
        <ele>59</ele>
        <time>2023-11-12T17:36:26Z</time>
      </trkpt>
      <trkpt lat="47.09943" lon="-1.23514">
        <ele>60</ele>
        <time>2023-11-12T17:36:52Z</time>
      </trkpt>
      <trkpt lat="47.0993" lon="-1.23494">
        <ele>61</ele>
        <time>2023-11-12T17:37:17Z</time>
      </trkpt>
      <trkpt lat="47.09924" lon="-1.23468">
        <ele>60</ele>
        <time>2023-11-12T17:37:42Z</time>
      </trkpt>
      <trkpt lat="47.09906" lon="-1.23474">
        <ele>61</ele>
        <time>2023-11-12T17:38:07Z</time>
      </trkpt>
      <trkpt lat="47.09892" lon="-1.23492">
        <ele>60</ele>
        <time>2023-11-12T17:38:31Z</time>
      </trkpt>
      <trkpt lat="47.09903" lon="-1.23471">
        <ele>60</ele>
        <time>2023-11-12T17:38:56Z</time>
      </trkpt>
      <trkpt lat="47.09918" lon="-1.23457">
        <ele>60</ele>
        <time>2023-11-12T17:39:19Z</time>
      </trkpt>
      <trkpt lat="47.09916" lon="-1.2343">
        <ele>59</ele>
        <time>2023-11-12T17:39:44Z</time>
      </trkpt>
      <trkpt lat="47.09899" lon="-1.23416">
        <ele>57</ele>
        <time>2023-11-12T17:40:10Z</time>
      </trkpt>
      <trkpt lat="47.09881" lon="-1.23409">
        <ele>55</ele>
        <time>2023-11-12T17:40:35Z</time>
      </trkpt>
      <trkpt lat="47.09864" lon="-1.23424">
        <ele>56</ele>
        <time>2023-11-12T17:41:01Z</time>
      </trkpt>
      <trkpt lat="47.09849" lon="-1.23405">
        <ele>52</ele>
        <time>2023-11-12T17:41:28Z</time>
      </trkpt>
      <trkpt lat="47.0984" lon="-1.23382">
        <ele>47</ele>
        <time>2023-11-12T17:41:52Z</time>
      </trkpt>
      <trkpt lat="47.09825" lon="-1.23397">
        <ele>48</ele>
        <time>2023-11-12T17:42:16Z</time>
      </trkpt>
      <trkpt lat="47.09806" lon="-1.23404">
        <ele>46</ele>
        <time>2023-11-12T17:42:42Z</time>
      </trkpt>
      <trkpt lat="47.09788" lon="-1.23407">
        <ele>43</ele>
        <time>2023-11-12T17:43:06Z</time>
      </trkpt>
      <trkpt lat="47.09771" lon="-1.23397">
        <ele>38</ele>
        <time>2023-11-12T17:43:31Z</time>
      </trkpt>
      <trkpt lat="47.09754" lon="-1.23383">
        <ele>34</ele>
        <time>2023-11-12T17:43:57Z</time>
      </trkpt>
      <trkpt lat="47.09756" lon="-1.23356">
        <ele>32</ele>
        <time>2023-11-12T17:44:21Z</time>
      </trkpt>
      <trkpt lat="47.0974" lon="-1.23371">
        <ele>32</ele>
        <time>2023-11-12T17:44:47Z</time>
      </trkpt>
      <trkpt lat="47.09723" lon="-1.23381">
        <ele>31</ele>
        <time>2023-11-12T17:45:11Z</time>
      </trkpt>
      <trkpt lat="47.09708" lon="-1.23398">
        <ele>31</ele>
        <time>2023-11-12T17:45:36Z</time>
      </trkpt>
      <trkpt lat="47.09674" lon="-1.23428">
        <ele>27</ele>
        <time>2023-11-12T17:46:29Z</time>
      </trkpt>
      <trkpt lat="47.09664" lon="-1.23452">
        <ele>27</ele>
        <time>2023-11-12T17:46:55Z</time>
      </trkpt>
      <trkpt lat="47.09652" lon="-1.23501">
        <ele>29</ele>
        <time>2023-11-12T17:47:42Z</time>
      </trkpt>
      <trkpt lat="47.09648" lon="-1.23528">
        <ele>30</ele>
        <time>2023-11-12T17:48:07Z</time>
      </trkpt>
      <trkpt lat="47.09644" lon="-1.23556">
        <ele>31</ele>
        <time>2023-11-12T17:48:33Z</time>
      </trkpt>
      <trkpt lat="47.09643" lon="-1.23639">
        <ele>31</ele>
        <time>2023-11-12T17:49:49Z</time>
      </trkpt>
      <trkpt lat="47.09652" lon="-1.23665">
        <ele>29</ele>
        <time>2023-11-12T17:50:15Z</time>
      </trkpt>
      <trkpt lat="47.0967" lon="-1.23668">
        <ele>28</ele>
        <time>2023-11-12T17:50:39Z</time>
      </trkpt>
      <trkpt lat="47.09686" lon="-1.2368">
        <ele>31</ele>
        <time>2023-11-12T17:51:03Z</time>
      </trkpt>
      <trkpt lat="47.09649" lon="-1.2367">
        <ele>30</ele>
        <time>2023-11-12T17:51:54Z</time>
      </trkpt>
      <trkpt lat="47.09649" lon="-1.23727">
        <ele>30</ele>
        <time>2023-11-12T17:52:45Z</time>
      </trkpt>
      <trkpt lat="47.09656" lon="-1.23835">
        <ele>30</ele>
        <time>2023-11-12T17:54:24Z</time>
      </trkpt>
      <trkpt lat="47.09653" lon="-1.23862">
        <ele>31</ele>
        <time>2023-11-12T17:54:49Z</time>
      </trkpt>
      <trkpt lat="47.09647" lon="-1.23888">
        <ele>31</ele>
        <time>2023-11-12T17:55:14Z</time>
      </trkpt>
      <trkpt lat="47.09624" lon="-1.23936">
        <ele>33</ele>
        <time>2023-11-12T17:56:07Z</time>
      </trkpt>
      <trkpt lat="47.09595" lon="-1.2397">
        <ele>35</ele>
        <time>2023-11-12T17:56:57Z</time>
      </trkpt>
      <trkpt lat="47.09578" lon="-1.23987">
        <ele>35</ele>
        <time>2023-11-12T17:57:24Z</time>
      </trkpt>
      <trkpt lat="47.09544" lon="-1.2401">
        <ele>33</ele>
        <time>2023-11-12T17:58:14Z</time>
      </trkpt>
      <trkpt lat="47.09527" lon="-1.24016">
        <ele>31</ele>
        <time>2023-11-12T17:58:37Z</time>
      </trkpt>
      <trkpt lat="47.09511" lon="-1.24031">
        <ele>30</ele>
        <time>2023-11-12T17:59:03Z</time>
      </trkpt>
      <trkpt lat="47.09503" lon="-1.24055">
        <ele>32</ele>
        <time>2023-11-12T17:59:27Z</time>
      </trkpt>
      <trkpt lat="47.09501" lon="-1.24082">
        <ele>34</ele>
        <time>2023-11-12T17:59:52Z</time>
      </trkpt>
      <trkpt lat="47.09504" lon="-1.24137">
        <ele>34</ele>
        <time>2023-11-12T18:00:42Z</time>
      </trkpt>
      <trkpt lat="47.09508" lon="-1.24164">
        <ele>35</ele>
        <time>2023-11-12T18:01:07Z</time>
      </trkpt>
      <trkpt lat="47.09519" lon="-1.24189">
        <ele>35</ele>
        <time>2023-11-12T18:01:34Z</time>
      </trkpt>
      <trkpt lat="47.09535" lon="-1.24203">
        <ele>37</ele>
        <time>2023-11-12T18:01:59Z</time>
      </trkpt>
      <trkpt lat="47.09533" lon="-1.2423">
        <ele>35</ele>
        <time>2023-11-12T18:02:23Z</time>
      </trkpt>
      <trkpt lat="47.09534" lon="-1.24285">
        <ele>34</ele>
        <time>2023-11-12T18:03:13Z</time>
      </trkpt>
      <trkpt lat="47.09585" lon="-1.24327">
        <ele>38</ele>
        <time>2023-11-12T18:04:31Z</time>
      </trkpt>
      <trkpt lat="47.09603" lon="-1.24338">
        <ele>39</ele>
        <time>2023-11-12T18:04:57Z</time>
      </trkpt>
      <trkpt lat="47.09612" lon="-1.24364">
        <ele>39</ele>
        <time>2023-11-12T18:05:24Z</time>
      </trkpt>
      <trkpt lat="47.09648" lon="-1.24383">
        <ele>41</ele>
        <time>2023-11-12T18:06:15Z</time>
      </trkpt>
      <trkpt lat="47.09663" lon="-1.24398">
        <ele>41</ele>
        <time>2023-11-12T18:06:39Z</time>
      </trkpt>
      <trkpt lat="47.09713" lon="-1.24437">
        <ele>44</ele>
        <time>2023-11-12T18:07:55Z</time>
      </trkpt>
      <trkpt lat="47.09808" lon="-1.24481">
        <ele>45</ele>
        <time>2023-11-12T18:10:08Z</time>
      </trkpt>
      <trkpt lat="47.09826" lon="-1.24492">
        <ele>44</ele>
        <time>2023-11-12T18:10:34Z</time>
      </trkpt>
      <trkpt lat="47.09841" lon="-1.24506">
        <ele>44</ele>
        <time>2023-11-12T18:10:57Z</time>
      </trkpt>
      <trkpt lat="47.09837" lon="-1.24563">
        <ele>42</ele>
        <time>2023-11-12T18:11:49Z</time>
      </trkpt>
      <trkpt lat="47.09856" lon="-1.24567">
        <ele>41</ele>
        <time>2023-11-12T18:12:15Z</time>
      </trkpt>
      <trkpt lat="47.09896" lon="-1.24556">
        <ele>41</ele>
        <time>2023-11-12T18:13:09Z</time>
      </trkpt>
      <trkpt lat="47.09931" lon="-1.24533">
        <ele>41</ele>
        <time>2023-11-12T18:14:01Z</time>
      </trkpt>
      <trkpt lat="47.09986" lon="-1.24508">
        <ele>41</ele>
        <time>2023-11-12T18:15:17Z</time>
      </trkpt>
      <trkpt lat="47.1" lon="-1.24489">
        <ele>42</ele>
        <time>2023-11-12T18:15:43Z</time>
      </trkpt>
      <trkpt lat="47.10039" lon="-1.24395">
        <ele>45</ele>
        <time>2023-11-12T18:17:23Z</time>
      </trkpt>
      <trkpt lat="47.10066" lon="-1.24316">
        <ele>46</ele>
        <time>2023-11-12T18:18:43Z</time>
      </trkpt>
      <trkpt lat="47.10073" lon="-1.24288">
        <ele>46</ele>
        <time>2023-11-12T18:19:10Z</time>
      </trkpt>
      <trkpt lat="47.10095" lon="-1.24243">
        <ele>47</ele>
        <time>2023-11-12T18:20:01Z</time>
      </trkpt>
      <trkpt lat="47.10114" lon="-1.24192">
        <ele>49</ele>
        <time>2023-11-12T18:20:53Z</time>
      </trkpt>
      <trkpt lat="47.10118" lon="-1.24163">
        <ele>50</ele>
        <time>2023-11-12T18:21:20Z</time>
      </trkpt>
      <trkpt lat="47.10144" lon="-1.24059">
        <ele>53</ele>
        <time>2023-11-12T18:23:01Z</time>
      </trkpt>
      <trkpt lat="47.10144" lon="-1.2403">
        <ele>54</ele>
        <time>2023-11-12T18:23:27Z</time>
      </trkpt>
      <trkpt lat="47.10164" lon="-1.23984">
        <ele>54</ele>
        <time>2023-11-12T18:24:17Z</time>
      </trkpt>
      <trkpt lat="47.10175" lon="-1.24006">
        <ele>54</ele>
        <time>2023-11-12T18:24:42Z</time>
      </trkpt>
      <trkpt lat="47.10224" lon="-1.23919">
        <ele>55</ele>
        <time>2023-11-12T18:26:24Z</time>
      </trkpt>
      <trkpt lat="47.10242" lon="-1.23873">
        <ele>56</ele>
        <time>2023-11-12T18:27:12Z</time>
      </trkpt>
      <trkpt lat="47.10299" lon="-1.2376">
        <ele>58</ele>
        <time>2023-11-12T18:29:20Z</time>
      </trkpt>
      <trkpt lat="47.10319" lon="-1.23713">
        <ele>58</ele>
        <time>2023-11-12T18:30:10Z</time>
      </trkpt>
      <trkpt lat="47.10348" lon="-1.23679">
        <ele>59</ele>
        <time>2023-11-12T18:31:00Z</time>
      </trkpt>
      <trkpt lat="47.10365" lon="-1.23664">
        <ele>59</ele>
        <time>2023-11-12T18:31:26Z</time>
      </trkpt>
      <trkpt lat="47.10396" lon="-1.2363">
        <ele>60</ele>
        <time>2023-11-12T18:32:18Z</time>
      </trkpt>
      <trkpt lat="47.10471" lon="-1.2354">
        <ele>62</ele>
        <time>2023-11-12T18:34:27Z</time>
      </trkpt>
      <trkpt lat="47.10502" lon="-1.23508">
        <ele>63</ele>
        <time>2023-11-12T18:35:18Z</time>
      </trkpt>
      <trkpt lat="47.10506" lon="-1.23482">
        <ele>63</ele>
        <time>2023-11-12T18:35:42Z</time>
      </trkpt>
      <trkpt lat="47.10487" lon="-1.23474">
        <ele>63</ele>
        <time>2023-11-12T18:36:08Z</time>
      </trkpt>
      <trkpt lat="47.10469" lon="-1.23463">
        <ele>62</ele>
        <time>2023-11-12T18:36:34Z</time>
      </trkpt>
      <trkpt lat="47.10382" lon="-1.23399">
        <ele>61</ele>
        <time>2023-11-12T18:38:44Z</time>
      </trkpt>
      <trkpt lat="47.10364" lon="-1.23391">
        <ele>60</ele>
        <time>2023-11-12T18:39:09Z</time>
      </trkpt>
      <trkpt lat="47.1033" lon="-1.23366">
        <ele>59</ele>
        <time>2023-11-12T18:40:00Z</time>
      </trkpt>
      <trkpt lat="47.10296" lon="-1.23347">
        <ele>57</ele>
        <time>2023-11-12T18:40:49Z</time>
      </trkpt>
      <trkpt lat="47.10277" lon="-1.2334">
        <ele>57</ele>
        <time>2023-11-12T18:41:15Z</time>
      </trkpt>
      <trkpt lat="47.10257" lon="-1.23346">
        <ele>56</ele>
        <time>2023-11-12T18:41:42Z</time>
      </trkpt>
      <trkpt lat="47.10243" lon="-1.23366">
        <ele>56</ele>
        <time>2023-11-12T18:42:08Z</time>
      </trkpt>
      <trkpt lat="47.10233" lon="-1.23389">
        <ele>57</ele>
        <time>2023-11-12T18:42:33Z</time>
      </trkpt>
      <trkpt lat="47.10213" lon="-1.23385">
        <ele>55</ele>
        <time>2023-11-12T18:43:00Z</time>
      </trkpt>
      <trkpt lat="47.10144" lon="-1.23337">
        <ele>48</ele>
        <time>2023-11-12T18:44:42Z</time>
      </trkpt>
      <trkpt lat="47.10109" lon="-1.23319">
        <ele>44</ele>
        <time>2023-11-12T18:45:31Z</time>
      </trkpt>
      <trkpt lat="47.10052" lon="-1.23302">
        <ele>38</ele>
        <time>2023-11-12T18:46:49Z</time>
      </trkpt>
      <trkpt lat="47.10051" lon="-1.23274">
        <ele>36</ele>
        <time>2023-11-12T18:47:14Z</time>
      </trkpt>
      <trkpt lat="47.10057" lon="-1.23248">
        <ele>34</ele>
        <time>2023-11-12T18:47:39Z</time>
      </trkpt>
      <trkpt lat="47.10064" lon="-1.23191">
        <ele>33</ele>
        <time>2023-11-12T18:48:32Z</time>
      </trkpt>
      <trkpt lat="47.10063" lon="-1.23161">
        <ele>31</ele>
        <time>2023-11-12T18:48:59Z</time>
      </trkpt>
      <trkpt lat="47.1007" lon="-1.23105">
        <ele>31</ele>
        <time>2023-11-12T18:49:51Z</time>
      </trkpt>
      <trkpt lat="47.10069" lon="-1.23077">
        <ele>30</ele>
        <time>2023-11-12T18:50:16Z</time>
      </trkpt>
      <trkpt lat="47.10078" lon="-1.22992">
        <ele>30</ele>
        <time>2023-11-12T18:51:34Z</time>
      </trkpt>
      <trkpt lat="47.10092" lon="-1.22908">
        <ele>31</ele>
        <time>2023-11-12T18:52:53Z</time>
      </trkpt>
      <trkpt lat="47.10094" lon="-1.22882">
        <ele>31</ele>
        <time>2023-11-12T18:53:17Z</time>
      </trkpt>
      <trkpt lat="47.1008" lon="-1.22802">
        <ele>29</ele>
        <time>2023-11-12T18:54:32Z</time>
      </trkpt>
      <trkpt lat="47.10075" lon="-1.22747">
        <ele>30</ele>
        <time>2023-11-12T18:55:22Z</time>
      </trkpt>
      <trkpt lat="47.10075" lon="-1.22719">
        <ele>29</ele>
        <time>2023-11-12T18:55:48Z</time>
      </trkpt>
      <trkpt lat="47.10085" lon="-1.22665">
        <ele>28</ele>
        <time>2023-11-12T18:56:38Z</time>
      </trkpt>
      <trkpt lat="47.10085" lon="-1.22583">
        <ele>28</ele>
        <time>2023-11-12T18:57:53Z</time>
      </trkpt>
      <trkpt lat="47.1007" lon="-1.22501">
        <ele>27</ele>
        <time>2023-11-12T18:59:10Z</time>
      </trkpt>
      <trkpt lat="47.10065" lon="-1.22445">
        <ele>28</ele>
        <time>2023-11-12T19:00:01Z</time>
      </trkpt>
      <trkpt lat="47.10066" lon="-1.22418">
        <ele>28</ele>
        <time>2023-11-12T19:00:26Z</time>
      </trkpt>
      <trkpt lat="47.10078" lon="-1.22365">
        <ele>31</ele>
        <time>2023-11-12T19:01:17Z</time>
      </trkpt>
      <trkpt lat="47.10081" lon="-1.22336">
        <ele>32</ele>
        <time>2023-11-12T19:01:43Z</time>
      </trkpt>
      <trkpt lat="47.10072" lon="-1.22313">
        <ele>32</ele>
        <time>2023-11-12T19:02:07Z</time>
      </trkpt>
      <trkpt lat="47.10039" lon="-1.22281">
        <ele>30</ele>
        <time>2023-11-12T19:03:00Z</time>
      </trkpt>
      <trkpt lat="47.1003" lon="-1.22257">
        <ele>29</ele>
        <time>2023-11-12T19:03:25Z</time>
      </trkpt>
      <trkpt lat="47.10016" lon="-1.2215">
        <ele>29</ele>
        <time>2023-11-12T19:05:04Z</time>
      </trkpt>
      <trkpt lat="47.10017" lon="-1.2209">
        <ele>29</ele>
        <time>2023-11-12T19:05:59Z</time>
      </trkpt>
      <trkpt lat="47.10024" lon="-1.22064">
        <ele>30</ele>
        <time>2023-11-12T19:06:24Z</time>
      </trkpt>
      <trkpt lat="47.09996" lon="-1.22028">
        <ele>29</ele>
        <time>2023-11-12T19:07:14Z</time>
      </trkpt>
      <trkpt lat="47.09992" lon="-1.22001">
        <ele>29</ele>
        <time>2023-11-12T19:07:39Z</time>
      </trkpt>
      <trkpt lat="47.09981" lon="-1.21976">
        <ele>29</ele>
        <time>2023-11-12T19:08:06Z</time>
      </trkpt>
      <trkpt lat="47.09968" lon="-1.21861">
        <ele>31</ele>
        <time>2023-11-12T19:09:52Z</time>
      </trkpt>
      <trkpt lat="47.09967" lon="-1.2183">
        <ele>33</ele>
        <time>2023-11-12T19:10:20Z</time>
      </trkpt>
      <trkpt lat="47.09955" lon="-1.21779">
        <ele>32</ele>
        <time>2023-11-12T19:11:09Z</time>
      </trkpt>
      <trkpt lat="47.09945" lon="-1.21692">
        <ele>33</ele>
        <time>2023-11-12T19:12:29Z</time>
      </trkpt>
      <trkpt lat="47.0994" lon="-1.21666">
        <ele>32</ele>
        <time>2023-11-12T19:12:54Z</time>
      </trkpt>
      <trkpt lat="47.09914" lon="-1.21625">
        <ele>28</ele>
        <time>2023-11-12T19:13:44Z</time>
      </trkpt>
      <trkpt lat="47.09911" lon="-1.21599">
        <ele>28</ele>
        <time>2023-11-12T19:14:08Z</time>
      </trkpt>
      <trkpt lat="47.09916" lon="-1.21572">
        <ele>28</ele>
        <time>2023-11-12T19:14:34Z</time>
      </trkpt>
      <trkpt lat="47.09924" lon="-1.21546">
        <ele>29</ele>
        <time>2023-11-12T19:15:00Z</time>
      </trkpt>
      <trkpt lat="47.09921" lon="-1.21518">
        <ele>29</ele>
        <time>2023-11-12T19:15:26Z</time>
      </trkpt>
      <trkpt lat="47.09909" lon="-1.21497">
        <ele>29</ele>
        <time>2023-11-12T19:15:50Z</time>
      </trkpt>
      <trkpt lat="47.09906" lon="-1.21469">
        <ele>30</ele>
        <time>2023-11-12T19:16:16Z</time>
      </trkpt>
      <trkpt lat="47.09893" lon="-1.21415">
        <ele>32</ele>
        <time>2023-11-12T19:17:08Z</time>
      </trkpt>
      <trkpt lat="47.09889" lon="-1.21388">
        <ele>32</ele>
        <time>2023-11-12T19:17:33Z</time>
      </trkpt>
      <trkpt lat="47.0986" lon="-1.21312">
        <ele>30</ele>
        <time>2023-11-12T19:18:52Z</time>
      </trkpt>
      <trkpt lat="47.09855" lon="-1.21286">
        <ele>30</ele>
        <time>2023-11-12T19:19:17Z</time>
      </trkpt>
      <trkpt lat="47.0983" lon="-1.21244">
        <ele>29</ele>
        <time>2023-11-12T19:20:08Z</time>
      </trkpt>
      <trkpt lat="47.09815" lon="-1.21227">
        <ele>30</ele>
        <time>2023-11-12T19:20:33Z</time>
      </trkpt>
      <trkpt lat="47.09807" lon="-1.212">
        <ele>30</ele>
        <time>2023-11-12T19:21:00Z</time>
      </trkpt>
      <trkpt lat="47.09797" lon="-1.21147">
        <ele>30</ele>
        <time>2023-11-12T19:21:50Z</time>
      </trkpt>
      <trkpt lat="47.09795" lon="-1.21092">
        <ele>30</ele>
        <time>2023-11-12T19:22:40Z</time>
      </trkpt>
      <trkpt lat="47.09779" lon="-1.21081">
        <ele>29</ele>
        <time>2023-11-12T19:23:03Z</time>
      </trkpt>
      <trkpt lat="47.09798" lon="-1.21078">
        <ele>30</ele>
        <time>2023-11-12T19:23:29Z</time>
      </trkpt>
      <trkpt lat="47.09785" lon="-1.2106">
        <ele>29</ele>
        <time>2023-11-12T19:23:53Z</time>
      </trkpt>
      <trkpt lat="47.09779" lon="-1.21034">
        <ele>29</ele>
        <time>2023-11-12T19:24:18Z</time>
      </trkpt>
      <trkpt lat="47.09774" lon="-1.20976">
        <ele>29</ele>
        <time>2023-11-12T19:25:11Z</time>
      </trkpt>
      <trkpt lat="47.09763" lon="-1.2092">
        <ele>29</ele>
        <time>2023-11-12T19:26:04Z</time>
      </trkpt>
      <trkpt lat="47.0975" lon="-1.20901">
        <ele>28</ele>
        <time>2023-11-12T19:26:28Z</time>
      </trkpt>
      <trkpt lat="47.09741" lon="-1.20874">
        <ele>29</ele>
        <time>2023-11-12T19:26:55Z</time>
      </trkpt>
      <trkpt lat="47.09729" lon="-1.20731">
        <ele>31</ele>
        <time>2023-11-12T19:29:06Z</time>
      </trkpt>
      <trkpt lat="47.09739" lon="-1.20648">
        <ele>32</ele>
        <time>2023-11-12T19:30:23Z</time>
      </trkpt>
      <trkpt lat="47.09762" lon="-1.2051">
        <ele>34</ele>
        <time>2023-11-12T19:32:32Z</time>
      </trkpt>
      <trkpt lat="47.09806" lon="-1.2035">
        <ele>35</ele>
        <time>2023-11-12T19:35:09Z</time>
      </trkpt>
      <trkpt lat="47.09814" lon="-1.20296">
        <ele>36</ele>
        <time>2023-11-12T19:35:59Z</time>
      </trkpt>
      <trkpt lat="47.09822" lon="-1.20267">
        <ele>37</ele>
        <time>2023-11-12T19:36:27Z</time>
      </trkpt>
      <trkpt lat="47.09821" lon="-1.2024">
        <ele>38</ele>
        <time>2023-11-12T19:36:52Z</time>
      </trkpt>
      <trkpt lat="47.09817" lon="-1.20211">
        <ele>37</ele>
        <time>2023-11-12T19:37:19Z</time>
      </trkpt>
      <trkpt lat="47.09803" lon="-1.20191">
        <ele>36</ele>
        <time>2023-11-12T19:37:45Z</time>
      </trkpt>
      <trkpt lat="47.098" lon="-1.20136">
        <ele>36</ele>
        <time>2023-11-12T19:38:35Z</time>
      </trkpt>
      <trkpt lat="47.09787" lon="-1.20116">
        <ele>35</ele>
        <time>2023-11-12T19:39:00Z</time>
      </trkpt>
      <trkpt lat="47.09778" lon="-1.20092">
        <ele>34</ele>
        <time>2023-11-12T19:39:25Z</time>
      </trkpt>
      <trkpt lat="47.09733" lon="-1.19906">
        <ele>35</ele>
        <time>2023-11-12T19:42:24Z</time>
      </trkpt>
      <trkpt lat="47.09725" lon="-1.19881">
        <ele>35</ele>
        <time>2023-11-12T19:42:49Z</time>
      </trkpt>
      <trkpt lat="47.09705" lon="-1.19835">
        <ele>34</ele>
        <time>2023-11-12T19:43:39Z</time>
      </trkpt>
      <trkpt lat="47.0969" lon="-1.19782">
        <ele>33</ele>
        <time>2023-11-12T19:44:31Z</time>
      </trkpt>
      <trkpt lat="47.09678" lon="-1.1976">
        <ele>32</ele>
        <time>2023-11-12T19:44:57Z</time>
      </trkpt>
      <trkpt lat="47.0967" lon="-1.19704">
        <ele>33</ele>
        <time>2023-11-12T19:45:49Z</time>
      </trkpt>
      <trkpt lat="47.09662" lon="-1.19678">
        <ele>33</ele>
        <time>2023-11-12T19:46:15Z</time>
      </trkpt>
      <trkpt lat="47.09632" lon="-1.19543">
        <ele>35</ele>
        <time>2023-11-12T19:48:24Z</time>
      </trkpt>
      <trkpt lat="47.09628" lon="-1.19489">
        <ele>34</ele>
        <time>2023-11-12T19:49:13Z</time>
      </trkpt>
      <trkpt lat="47.0963" lon="-1.1946">
        <ele>34</ele>
        <time>2023-11-12T19:49:39Z</time>
      </trkpt>
      <trkpt lat="47.09635" lon="-1.19433">
        <ele>34</ele>
        <time>2023-11-12T19:50:05Z</time>
      </trkpt>
      <trkpt lat="47.09641" lon="-1.19406">
        <ele>35</ele>
        <time>2023-11-12T19:50:31Z</time>
      </trkpt>
      <trkpt lat="47.09665" lon="-1.19365">
        <ele>37</ele>
        <time>2023-11-12T19:51:20Z</time>
      </trkpt>
      <trkpt lat="47.09646" lon="-1.19356">
        <ele>35</ele>
        <time>2023-11-12T19:51:46Z</time>
      </trkpt>
      <trkpt lat="47.09626" lon="-1.19361">
        <ele>34</ele>
        <time>2023-11-12T19:52:14Z</time>
      </trkpt>
      <trkpt lat="47.09607" lon="-1.19354">
        <ele>32</ele>
        <time>2023-11-12T19:52:40Z</time>
      </trkpt>
      <trkpt lat="47.09599" lon="-1.19327">
        <ele>31</ele>
        <time>2023-11-12T19:53:06Z</time>
      </trkpt>
      <trkpt lat="47.09596" lon="-1.19298">
        <ele>31</ele>
        <time>2023-11-12T19:53:33Z</time>
      </trkpt>
      <trkpt lat="47.09598" lon="-1.19268">
        <ele>32</ele>
        <time>2023-11-12T19:54:00Z</time>
      </trkpt>
      <trkpt lat="47.09603" lon="-1.19242">
        <ele>33</ele>
        <time>2023-11-12T19:54:25Z</time>
      </trkpt>
      <trkpt lat="47.096" lon="-1.19216">
        <ele>32</ele>
        <time>2023-11-12T19:54:49Z</time>
      </trkpt>
      <trkpt lat="47.09591" lon="-1.19189">
        <ele>31</ele>
        <time>2023-11-12T19:55:16Z</time>
      </trkpt>
      <trkpt lat="47.0959" lon="-1.1913">
        <ele>31</ele>
        <time>2023-11-12T19:56:10Z</time>
      </trkpt>
      <trkpt lat="47.09582" lon="-1.1902">
        <ele>31</ele>
        <time>2023-11-12T19:57:50Z</time>
      </trkpt>
      <trkpt lat="47.09583" lon="-1.1899">
        <ele>31</ele>
        <time>2023-11-12T19:58:18Z</time>
      </trkpt>
      <trkpt lat="47.09605" lon="-1.18914">
        <ele>35</ele>
        <time>2023-11-12T19:59:33Z</time>
      </trkpt>
      <trkpt lat="47.09612" lon="-1.18857">
        <ele>37</ele>
        <time>2023-11-12T20:00:25Z</time>
      </trkpt>
      <trkpt lat="47.09626" lon="-1.18801">
        <ele>40</ele>
        <time>2023-11-12T20:01:19Z</time>
      </trkpt>
      <trkpt lat="47.09631" lon="-1.18684">
        <ele>42</ele>
        <time>2023-11-12T20:03:06Z</time>
      </trkpt>
      <trkpt lat="47.09636" lon="-1.18658">
        <ele>43</ele>
        <time>2023-11-12T20:03:31Z</time>
      </trkpt>
      <trkpt lat="47.09655" lon="-1.1866">
        <ele>47</ele>
        <time>2023-11-12T20:03:56Z</time>
      </trkpt>
      <trkpt lat="47.09692" lon="-1.18657">
        <ele>52</ele>
        <time>2023-11-12T20:04:45Z</time>
      </trkpt>
      <trkpt lat="47.0971" lon="-1.18647">
        <ele>53</ele>
        <time>2023-11-12T20:05:11Z</time>
      </trkpt>
      <trkpt lat="47.09723" lon="-1.18627">
        <ele>55</ele>
        <time>2023-11-12T20:05:36Z</time>
      </trkpt>
      <trkpt lat="47.0974" lon="-1.18638">
        <ele>57</ele>
        <time>2023-11-12T20:06:01Z</time>
      </trkpt>
      <trkpt lat="47.09757" lon="-1.18645">
        <ele>59</ele>
        <time>2023-11-12T20:06:25Z</time>
      </trkpt>
      <trkpt lat="47.09871" lon="-1.18634">
        <ele>70</ele>
        <time>2023-11-12T20:08:57Z</time>
      </trkpt>
      <trkpt lat="47.09888" lon="-1.18646">
        <ele>72</ele>
        <time>2023-11-12T20:09:22Z</time>
      </trkpt>
      <trkpt lat="47.09898" lon="-1.1867">
        <ele>72</ele>
        <time>2023-11-12T20:09:48Z</time>
      </trkpt>
      <trkpt lat="47.0991" lon="-1.1869">
        <ele>73</ele>
        <time>2023-11-12T20:10:12Z</time>
      </trkpt>
      <trkpt lat="47.0993" lon="-1.18688">
        <ele>74</ele>
        <time>2023-11-12T20:10:39Z</time>
      </trkpt>
      <trkpt lat="47.09946" lon="-1.18674">
        <ele>74</ele>
        <time>2023-11-12T20:11:04Z</time>
      </trkpt>
      <trkpt lat="47.09964" lon="-1.18669">
        <ele>75</ele>
        <time>2023-11-12T20:11:28Z</time>
      </trkpt>
      <trkpt lat="47.09974" lon="-1.18646">
        <ele>74</ele>
        <time>2023-11-12T20:11:53Z</time>
      </trkpt>
      <trkpt lat="47.09978" lon="-1.18619">
        <ele>74</ele>
        <time>2023-11-12T20:12:18Z</time>
      </trkpt>
      <trkpt lat="47.09981" lon="-1.18563">
        <ele>73</ele>
        <time>2023-11-12T20:13:09Z</time>
      </trkpt>
      <trkpt lat="47.09977" lon="-1.18536">
        <ele>72</ele>
        <time>2023-11-12T20:13:34Z</time>
      </trkpt>
      <trkpt lat="47.09981" lon="-1.18479">
        <ele>71</ele>
        <time>2023-11-12T20:14:26Z</time>
      </trkpt>
      <trkpt lat="47.09994" lon="-1.18457">
        <ele>70</ele>
        <time>2023-11-12T20:14:53Z</time>
      </trkpt>
      <trkpt lat="47.10024" lon="-1.18423">
        <ele>67</ele>
        <time>2023-11-12T20:15:43Z</time>
      </trkpt>
      <trkpt lat="47.10037" lon="-1.18404">
        <ele>66</ele>
        <time>2023-11-12T20:16:08Z</time>
      </trkpt>
      <trkpt lat="47.101" lon="-1.18338">
        <ele>61</ele>
        <time>2023-11-12T20:17:51Z</time>
      </trkpt>
      <trkpt lat="47.10111" lon="-1.18315">
        <ele>61</ele>
        <time>2023-11-12T20:18:16Z</time>
      </trkpt>
      <trkpt lat="47.10124" lon="-1.18297">
        <ele>61</ele>
        <time>2023-11-12T20:18:40Z</time>
      </trkpt>
      <trkpt lat="47.10141" lon="-1.18284">
        <ele>61</ele>
        <time>2023-11-12T20:19:06Z</time>
      </trkpt>
      <trkpt lat="47.10162" lon="-1.18237">
        <ele>62</ele>
        <time>2023-11-12T20:19:57Z</time>
      </trkpt>
      <trkpt lat="47.10185" lon="-1.18163">
        <ele>65</ele>
        <time>2023-11-12T20:21:11Z</time>
      </trkpt>
      <trkpt lat="47.10207" lon="-1.18082">
        <ele>70</ele>
        <time>2023-11-12T20:22:30Z</time>
      </trkpt>
      <trkpt lat="47.10223" lon="-1.18">
        <ele>72</ele>
        <time>2023-11-12T20:23:47Z</time>
      </trkpt>
      <trkpt lat="47.10237" lon="-1.17983">
        <ele>73</ele>
        <time>2023-11-12T20:24:12Z</time>
      </trkpt>
      <trkpt lat="47.1027" lon="-1.17953">
        <ele>74</ele>
        <time>2023-11-12T20:25:03Z</time>
      </trkpt>
      <trkpt lat="47.10348" lon="-1.17872">
        <ele>77</ele>
        <time>2023-11-12T20:27:11Z</time>
      </trkpt>
      <trkpt lat="47.10381" lon="-1.17841">
        <ele>77</ele>
        <time>2023-11-12T20:28:03Z</time>
      </trkpt>
      <trkpt lat="47.10396" lon="-1.17823">
        <ele>78</ele>
        <time>2023-11-12T20:28:29Z</time>
      </trkpt>
      <trkpt lat="47.10412" lon="-1.1781">
        <ele>78</ele>
        <time>2023-11-12T20:28:53Z</time>
      </trkpt>
      <trkpt lat="47.10487" lon="-1.17726">
        <ele>79</ele>
        <time>2023-11-12T20:30:59Z</time>
      </trkpt>
      <trkpt lat="47.10517" lon="-1.17687">
        <ele>80</ele>
        <time>2023-11-12T20:31:53Z</time>
      </trkpt>
      <trkpt lat="47.10596" lon="-1.1756">
        <ele>80</ele>
        <time>2023-11-12T20:34:29Z</time>
      </trkpt>
      <trkpt lat="47.10624" lon="-1.17518">
        <ele>81</ele>
        <time>2023-11-12T20:35:22Z</time>
      </trkpt>
      <trkpt lat="47.10639" lon="-1.175">
        <ele>82</ele>
        <time>2023-11-12T20:35:48Z</time>
      </trkpt>
      <trkpt lat="47.10651" lon="-1.17479">
        <ele>82</ele>
        <time>2023-11-12T20:36:13Z</time>
      </trkpt>
      <trkpt lat="47.10725" lon="-1.17387">
        <ele>82</ele>
        <time>2023-11-12T20:38:23Z</time>
      </trkpt>
      <trkpt lat="47.1078" lon="-1.17305">
        <ele>83</ele>
        <time>2023-11-12T20:40:07Z</time>
      </trkpt>
      <trkpt lat="47.10809" lon="-1.17269">
        <ele>85</ele>
        <time>2023-11-12T20:40:58Z</time>
      </trkpt>
      <trkpt lat="47.10857" lon="-1.17218">
        <ele>87</ele>
        <time>2023-11-12T20:42:17Z</time>
      </trkpt>
      <trkpt lat="47.10956" lon="-1.17081">
        <ele>90</ele>
        <time>2023-11-12T20:45:18Z</time>
      </trkpt>
      <trkpt lat="47.10992" lon="-1.17067">
        <ele>89</ele>
        <time>2023-11-12T20:46:08Z</time>
      </trkpt>
      <trkpt lat="47.1103" lon="-1.17047">
        <ele>89</ele>
        <time>2023-11-12T20:47:02Z</time>
      </trkpt>
      <trkpt lat="47.11046" lon="-1.17035">
        <ele>89</ele>
        <time>2023-11-12T20:47:26Z</time>
      </trkpt>
      <trkpt lat="47.11066" lon="-1.17032">
        <ele>89</ele>
        <time>2023-11-12T20:47:53Z</time>
      </trkpt>
      <trkpt lat="47.11141" lon="-1.16992">
        <ele>90</ele>
        <time>2023-11-12T20:49:39Z</time>
      </trkpt>
      <trkpt lat="47.11167" lon="-1.17032">
        <ele>90</ele>
        <time>2023-11-12T20:50:29Z</time>
      </trkpt>
      <trkpt lat="47.11184" lon="-1.17081">
        <ele>90</ele>
        <time>2023-11-12T20:51:19Z</time>
      </trkpt>
      <trkpt lat="47.11207" lon="-1.17126">
        <ele>90</ele>
        <time>2023-11-12T20:52:10Z</time>
      </trkpt>
      <trkpt lat="47.11291" lon="-1.17317">
        <ele>90</ele>
        <time>2023-11-12T20:55:37Z</time>
      </trkpt>
      <trkpt lat="47.11325" lon="-1.17384">
        <ele>88</ele>
        <time>2023-11-12T20:56:53Z</time>
      </trkpt>
      <trkpt lat="47.11335" lon="-1.1741">
        <ele>88</ele>
        <time>2023-11-12T20:57:20Z</time>
      </trkpt>
      <trkpt lat="47.11348" lon="-1.1743">
        <ele>88</ele>
        <time>2023-11-12T20:57:45Z</time>
      </trkpt>
      <trkpt lat="47.11356" lon="-1.17455">
        <ele>89</ele>
        <time>2023-11-12T20:58:10Z</time>
      </trkpt>
      <trkpt lat="47.11398" lon="-1.1751">
        <ele>90</ele>
        <time>2023-11-12T20:59:25Z</time>
      </trkpt>
      <trkpt lat="47.11488" lon="-1.1762">
        <ele>91</ele>
        <time>2023-11-12T21:02:02Z</time>
      </trkpt>
      <trkpt lat="47.11557" lon="-1.17716">
        <ele>88</ele>
        <time>2023-11-12T21:04:08Z</time>
      </trkpt>
      <trkpt lat="47.11573" lon="-1.17732">
        <ele>88</ele>
        <time>2023-11-12T21:04:34Z</time>
      </trkpt>
      <trkpt lat="47.11615" lon="-1.17795">
        <ele>88</ele>
        <time>2023-11-12T21:05:54Z</time>
      </trkpt>
      <trkpt lat="47.11689" lon="-1.17888">
        <ele>88</ele>
        <time>2023-11-12T21:08:04Z</time>
      </trkpt>
      <trkpt lat="47.11707" lon="-1.17891">
        <ele>88</ele>
        <time>2023-11-12T21:08:28Z</time>
      </trkpt>
      <trkpt lat="47.11727" lon="-1.17884">
        <ele>88</ele>
        <time>2023-11-12T21:08:56Z</time>
      </trkpt>
      <trkpt lat="47.11745" lon="-1.17874">
        <ele>88</ele>
        <time>2023-11-12T21:09:21Z</time>
      </trkpt>
      <trkpt lat="47.11882" lon="-1.17768">
        <ele>88</ele>
        <time>2023-11-12T21:12:48Z</time>
      </trkpt>
      <trkpt lat="47.119" lon="-1.1776">
        <ele>87</ele>
        <time>2023-11-12T21:13:13Z</time>
      </trkpt>
      <trkpt lat="47.11919" lon="-1.17763">
        <ele>87</ele>
        <time>2023-11-12T21:13:39Z</time>
      </trkpt>
      <trkpt lat="47.11931" lon="-1.17786">
        <ele>88</ele>
        <time>2023-11-12T21:14:05Z</time>
      </trkpt>
      <trkpt lat="47.11958" lon="-1.17863">
        <ele>88</ele>
        <time>2023-11-12T21:15:24Z</time>
      </trkpt>
      <trkpt lat="47.11985" lon="-1.18035">
        <ele>90</ele>
        <time>2023-11-12T21:18:04Z</time>
      </trkpt>
      <trkpt lat="47.11993" lon="-1.18118">
        <ele>91</ele>
        <time>2023-11-12T21:19:20Z</time>
      </trkpt>
      <trkpt lat="47.11992" lon="-1.18176">
        <ele>90</ele>
        <time>2023-11-12T21:20:13Z</time>
      </trkpt>
      <trkpt lat="47.11996" lon="-1.18229">
        <ele>90</ele>
        <time>2023-11-12T21:21:01Z</time>
      </trkpt>
      <trkpt lat="47.11997" lon="-1.18285">
        <ele>90</ele>
        <time>2023-11-12T21:21:52Z</time>
      </trkpt>
      <trkpt lat="47.12001" lon="-1.18311">
        <ele>90</ele>
        <time>2023-11-12T21:22:16Z</time>
      </trkpt>
      <trkpt lat="47.12011" lon="-1.18337">
        <ele>90</ele>
        <time>2023-11-12T21:22:43Z</time>
      </trkpt>
      <trkpt lat="47.12026" lon="-1.18353">
        <ele>90</ele>
        <time>2023-11-12T21:23:08Z</time>
      </trkpt>
      <trkpt lat="47.12102" lon="-1.1839">
        <ele>88</ele>
        <time>2023-11-12T21:24:55Z</time>
      </trkpt>
      <trkpt lat="47.12101" lon="-1.18419">
        <ele>89</ele>
        <time>2023-11-12T21:25:21Z</time>
      </trkpt>
      <trkpt lat="47.12094" lon="-1.18446">
        <ele>88</ele>
        <time>2023-11-12T21:25:48Z</time>
      </trkpt>
      <trkpt lat="47.12084" lon="-1.18469">
        <ele>88</ele>
        <time>2023-11-12T21:26:12Z</time>
      </trkpt>
      <trkpt lat="47.12085" lon="-1.18499">
        <ele>88</ele>
        <time>2023-11-12T21:26:40Z</time>
      </trkpt>
      <trkpt lat="47.12079" lon="-1.18556">
        <ele>88</ele>
        <time>2023-11-12T21:27:32Z</time>
      </trkpt>
      <trkpt lat="47.12082" lon="-1.18615">
        <ele>88</ele>
        <time>2023-11-12T21:28:26Z</time>
      </trkpt>
      <trkpt lat="47.12077" lon="-1.18642">
        <ele>87</ele>
        <time>2023-11-12T21:28:51Z</time>
      </trkpt>
      <trkpt lat="47.12059" lon="-1.18643">
        <ele>88</ele>
        <time>2023-11-12T21:29:15Z</time>
      </trkpt>
      <trkpt lat="47.11963" lon="-1.18611">
        <ele>89</ele>
        <time>2023-11-12T21:31:26Z</time>
      </trkpt>
      <trkpt lat="47.11924" lon="-1.18614">
        <ele>90</ele>
        <time>2023-11-12T21:32:19Z</time>
      </trkpt>
      <trkpt lat="47.11905" lon="-1.18609">
        <ele>90</ele>
        <time>2023-11-12T21:32:44Z</time>
      </trkpt>
      <trkpt lat="47.11885" lon="-1.18609">
        <ele>90</ele>
        <time>2023-11-12T21:33:11Z</time>
      </trkpt>
      <trkpt lat="47.11847" lon="-1.18602">
        <ele>91</ele>
        <time>2023-11-12T21:34:02Z</time>
      </trkpt>
      <trkpt lat="47.11807" lon="-1.1859">
        <ele>90</ele>
        <time>2023-11-12T21:34:57Z</time>
      </trkpt>
      <trkpt lat="47.11731" lon="-1.18579">
        <ele>88</ele>
        <time>2023-11-12T21:36:39Z</time>
      </trkpt>
      <trkpt lat="47.11692" lon="-1.1857">
        <ele>89</ele>
        <time>2023-11-12T21:37:31Z</time>
      </trkpt>
      <trkpt lat="47.11613" lon="-1.18543">
        <ele>87</ele>
        <time>2023-11-12T21:39:19Z</time>
      </trkpt>
      <trkpt lat="47.11555" lon="-1.18526">
        <ele>86</ele>
        <time>2023-11-12T21:40:38Z</time>
      </trkpt>
      <trkpt lat="47.11517" lon="-1.1851">
        <ele>86</ele>
        <time>2023-11-12T21:41:31Z</time>
      </trkpt>
      <trkpt lat="47.11499" lon="-1.18505">
        <ele>86</ele>
        <time>2023-11-12T21:41:56Z</time>
      </trkpt>
      <trkpt lat="47.11443" lon="-1.18529">
        <ele>85</ele>
        <time>2023-11-12T21:43:13Z</time>
      </trkpt>
      <trkpt lat="47.11352" lon="-1.18577">
        <ele>82</ele>
        <time>2023-11-12T21:45:22Z</time>
      </trkpt>
      <trkpt lat="47.11333" lon="-1.18574">
        <ele>81</ele>
        <time>2023-11-12T21:45:48Z</time>
      </trkpt>
      <trkpt lat="47.11283" lon="-1.18485">
        <ele>82</ele>
        <time>2023-11-12T21:47:33Z</time>
      </trkpt>
      <trkpt lat="47.11269" lon="-1.18466">
        <ele>82</ele>
        <time>2023-11-12T21:47:58Z</time>
      </trkpt>
      <trkpt lat="47.11256" lon="-1.18443">
        <ele>83</ele>
        <time>2023-11-12T21:48:25Z</time>
      </trkpt>
      <trkpt lat="47.11238" lon="-1.18433">
        <ele>83</ele>
        <time>2023-11-12T21:48:51Z</time>
      </trkpt>
      <trkpt lat="47.11165" lon="-1.18458">
        <ele>84</ele>
        <time>2023-11-12T21:50:31Z</time>
      </trkpt>
      <trkpt lat="47.11147" lon="-1.18461">
        <ele>84</ele>
        <time>2023-11-12T21:50:55Z</time>
      </trkpt>
      <trkpt lat="47.1111" lon="-1.18476">
        <ele>85</ele>
        <time>2023-11-12T21:51:46Z</time>
      </trkpt>
      <trkpt lat="47.11093" lon="-1.18485">
        <ele>85</ele>
        <time>2023-11-12T21:52:11Z</time>
      </trkpt>
      <trkpt lat="47.11079" lon="-1.18504">
        <ele>85</ele>
        <time>2023-11-12T21:52:36Z</time>
      </trkpt>
      <trkpt lat="47.11037" lon="-1.18601">
        <ele>84</ele>
        <time>2023-11-12T21:54:20Z</time>
      </trkpt>
      <trkpt lat="47.11006" lon="-1.18637">
        <ele>84</ele>
        <time>2023-11-12T21:55:13Z</time>
      </trkpt>
      <trkpt lat="47.10988" lon="-1.18653">
        <ele>84</ele>
        <time>2023-11-12T21:55:41Z</time>
      </trkpt>
      <trkpt lat="47.10918" lon="-1.18703">
        <ele>84</ele>
        <time>2023-11-12T21:57:25Z</time>
      </trkpt>
      <trkpt lat="47.10903" lon="-1.18717">
        <ele>83</ele>
        <time>2023-11-12T21:57:49Z</time>
      </trkpt>
      <trkpt lat="47.10816" lon="-1.18783">
        <ele>83</ele>
        <time>2023-11-12T21:59:59Z</time>
      </trkpt>
      <trkpt lat="47.10766" lon="-1.18825">
        <ele>83</ele>
        <time>2023-11-12T22:01:16Z</time>
      </trkpt>
      <trkpt lat="47.10696" lon="-1.18867">
        <ele>82</ele>
        <time>2023-11-12T22:02:57Z</time>
      </trkpt>
      <trkpt lat="47.1068" lon="-1.1888">
        <ele>83</ele>
        <time>2023-11-12T22:03:22Z</time>
      </trkpt>
      <trkpt lat="47.10673" lon="-1.18905">
        <ele>83</ele>
        <time>2023-11-12T22:03:46Z</time>
      </trkpt>
      <trkpt lat="47.10683" lon="-1.18931">
        <ele>83</ele>
        <time>2023-11-12T22:04:13Z</time>
      </trkpt>
      <trkpt lat="47.10677" lon="-1.18957">
        <ele>83</ele>
        <time>2023-11-12T22:04:38Z</time>
      </trkpt>
      <trkpt lat="47.10631" lon="-1.19009">
        <ele>83</ele>
        <time>2023-11-12T22:05:56Z</time>
      </trkpt>
      <trkpt lat="47.10619" lon="-1.1903">
        <ele>83</ele>
        <time>2023-11-12T22:06:21Z</time>
      </trkpt>
      <trkpt lat="47.10557" lon="-1.19097">
        <ele>81</ele>
        <time>2023-11-12T22:08:03Z</time>
      </trkpt>
      <trkpt lat="47.10486" lon="-1.19195">
        <ele>78</ele>
        <time>2023-11-12T22:10:13Z</time>
      </trkpt>
      <trkpt lat="47.10454" lon="-1.19231">
        <ele>77</ele>
        <time>2023-11-12T22:11:07Z</time>
      </trkpt>
      <trkpt lat="47.10436" lon="-1.19244">
        <ele>76</ele>
        <time>2023-11-12T22:11:34Z</time>
      </trkpt>
      <trkpt lat="47.10403" lon="-1.19277">
        <ele>76</ele>
        <time>2023-11-12T22:12:27Z</time>
      </trkpt>
      <trkpt lat="47.10399" lon="-1.19305">
        <ele>76</ele>
        <time>2023-11-12T22:12:53Z</time>
      </trkpt>
      <trkpt lat="47.10419" lon="-1.19355">
        <ele>76</ele>
        <time>2023-11-12T22:13:46Z</time>
      </trkpt>
      <trkpt lat="47.10408" lon="-1.19377">
        <ele>76</ele>
        <time>2023-11-12T22:14:11Z</time>
      </trkpt>
      <trkpt lat="47.10392" lon="-1.19393">
        <ele>75</ele>
        <time>2023-11-12T22:14:36Z</time>
      </trkpt>
      <trkpt lat="47.10364" lon="-1.19431">
        <ele>74</ele>
        <time>2023-11-12T22:15:27Z</time>
      </trkpt>
      <trkpt lat="47.10348" lon="-1.19444">
        <ele>73</ele>
        <time>2023-11-12T22:15:52Z</time>
      </trkpt>
      <trkpt lat="47.10317" lon="-1.19477">
        <ele>73</ele>
        <time>2023-11-12T22:16:43Z</time>
      </trkpt>
      <trkpt lat="47.10258" lon="-1.19551">
        <ele>72</ele>
        <time>2023-11-12T22:18:26Z</time>
      </trkpt>
      <trkpt lat="47.10232" lon="-1.19589">
        <ele>72</ele>
        <time>2023-11-12T22:19:15Z</time>
      </trkpt>
      <trkpt lat="47.10214" lon="-1.19593">
        <ele>71</ele>
        <time>2023-11-12T22:19:40Z</time>
      </trkpt>
      <trkpt lat="47.10139" lon="-1.19462">
        <ele>69</ele>
        <time>2023-11-12T22:22:15Z</time>
      </trkpt>
      <trkpt lat="47.10108" lon="-1.19425">
        <ele>68</ele>
        <time>2023-11-12T22:23:08Z</time>
      </trkpt>
      <trkpt lat="47.10095" lon="-1.19406">
        <ele>67</ele>
        <time>2023-11-12T22:23:33Z</time>
      </trkpt>
      <trkpt lat="47.10058" lon="-1.19342">
        <ele>63</ele>
        <time>2023-11-12T22:24:49Z</time>
      </trkpt>
      <trkpt lat="47.10028" lon="-1.1927">
        <ele>62</ele>
        <time>2023-11-12T22:26:06Z</time>
      </trkpt>
      <trkpt lat="47.10016" lon="-1.19248">
        <ele>62</ele>
        <time>2023-11-12T22:26:31Z</time>
      </trkpt>
      <trkpt lat="47.10004" lon="-1.19196">
        <ele>65</ele>
        <time>2023-11-12T22:27:21Z</time>
      </trkpt>
      <trkpt lat="47.09963" lon="-1.19065">
        <ele>69</ele>
        <time>2023-11-12T22:29:32Z</time>
      </trkpt>
      <trkpt lat="47.09957" lon="-1.19039">
        <ele>69</ele>
        <time>2023-11-12T22:29:57Z</time>
      </trkpt>
      <trkpt lat="47.0995" lon="-1.18985">
        <ele>70</ele>
        <time>2023-11-12T22:30:47Z</time>
      </trkpt>
      <trkpt lat="47.09938" lon="-1.18933">
        <ele>71</ele>
        <time>2023-11-12T22:31:37Z</time>
      </trkpt>
      <trkpt lat="47.0993" lon="-1.18877">
        <ele>71</ele>
        <time>2023-11-12T22:32:29Z</time>
      </trkpt>
      <trkpt lat="47.0993" lon="-1.18821">
        <ele>72</ele>
        <time>2023-11-12T22:33:20Z</time>
      </trkpt>
      <trkpt lat="47.09943" lon="-1.18799">
        <ele>72</ele>
        <time>2023-11-12T22:33:46Z</time>
      </trkpt>
      <trkpt lat="47.09961" lon="-1.18793">
        <ele>73</ele>
        <time>2023-11-12T22:34:11Z</time>
      </trkpt>
      <trkpt lat="47.09977" lon="-1.18781">
        <ele>74</ele>
        <time>2023-11-12T22:34:35Z</time>
      </trkpt>
      <trkpt lat="47.09984" lon="-1.18754">
        <ele>74</ele>
        <time>2023-11-12T22:35:01Z</time>
      </trkpt>
      <trkpt lat="47.09976" lon="-1.18728">
        <ele>74</ele>
        <time>2023-11-12T22:35:27Z</time>
      </trkpt>
    </trkseg>
  </trk>
</gpx>